Time;durP1;ratioP1;P1;durP2;ratioP2;P2;SDS_P1;SDS_P2;PMS_P1;PMS_P2;Temp;Humidity;BMP_temperature;BMP_pressure;BME280_temperature;BME280_humidity;BME280_pressure;Samples;Min_cycle;Max_cycle;Signal;HPM_P1;HPM_P2
2022/01/11 00:00:08;;;;;;;26.45;16.42;;;2.60;99.90;;;;;;5040125;28;20045;-80
2022/01/11 00:02:38;;;;;;;35.72;20.52;;;2.60;99.90;;;;;;5038157;28;20132;-81
2022/01/11 00:05:06;;;;;;;28.15;17.05;;;2.40;99.90;;;;;;5038405;28;20049;-81
2022/01/11 00:07:35;;;;;;;28.45;17.45;;;2.50;99.90;;;;;;5040020;28;20080;-80
2022/01/11 00:10:06;;;;;;;39.35;20.20;;;2.50;99.90;;;;;;5039606;28;20042;-81
2022/01/11 00:12:33;;;;;;;37.78;18.08;;;2.50;99.90;;;;;;5038926;28;20132;-81
2022/01/11 00:15:00;;;;;;;27.80;16.98;;;2.50;99.90;;;;;;5038628;28;20645;-81
2022/01/11 00:17:26;;;;;;;38.30;20.13;;;2.60;99.90;;;;;;5037345;28;20586;-81
2022/01/11 00:19:53;;;;;;;28.33;17.17;;;2.60;99.90;;;;;;5038522;28;20140;-82
2022/01/11 00:22:26;;;;;;;34.13;18.58;;;2.70;99.90;;;;;;5038243;28;20045;-82
2022/01/11 00:24:52;;;;;;;33.13;18.42;;;2.70;99.90;;;;;;5043400;28;20084;-81
2022/01/11 00:27:19;;;;;;;33.75;18.98;;;2.70;99.90;;;;;;5042942;28;20073;-81
2022/01/11 00:29:50;;;;;;;33.58;19.45;;;2.80;99.90;;;;;;5038076;28;20551;-81
2022/01/11 00:32:26;;;;;;;28.60;18.23;;;2.80;99.90;;;;;;5038576;28;20154;-82
2022/01/11 00:34:55;;;;;;;37.78;21.02;;;2.70;99.90;;;;;;5037184;28;20049;-81
2022/01/11 00:37:22;;;;;;;28.35;15.10;;;2.70;99.90;;;;;;5038068;28;20493;-81
2022/01/11 00:39:50;;;;;;;28.90;15.25;;;2.80;99.90;;;;;;5037898;28;20081;-81
2022/01/11 00:42:18;;;;;;;27.83;14.60;;;2.70;99.90;;;;;;5039044;28;20119;-82
2022/01/11 00:44:45;;;;;;;27.42;14.90;;;2.70;99.90;;;;;;5040923;28;20080;-81
2022/01/11 00:47:12;;;;;;;27.38;15.60;;;2.70;99.90;;;;;;5039075;28;20084;-82
2022/01/11 00:49:40;;;;;;;31.10;16.05;;;2.70;99.90;;;;;;5040364;28;20534;-82
2022/01/11 00:52:08;;;;;;;22.58;14.50;;;2.70;99.90;;;;;;5040877;28;20119;-82
2022/01/11 00:54:35;;;;;;;24.80;15.57;;;2.60;99.90;;;;;;5042470;28;20073;-82
2022/01/11 00:57:03;;;;;;;26.98;15.38;;;2.70;99.90;;;;;;5041536;28;20069;-82
2022/01/11 00:59:29;;;;;;;24.65;15.43;;;2.70;99.90;;;;;;5042968;28;20045;-82
2022/01/11 01:01:56;;;;;;;24.88;16.33;;;2.60;99.90;;;;;;5043786;28;20109;-81
2022/01/11 01:04:23;;;;;;;23.60;15.40;;;2.70;99.90;;;;;;5041116;28;20067;-81
2022/01/11 01:06:49;;;;;;;24.45;16.08;;;2.70;99.90;;;;;;5038260;28;20135;-81
2022/01/11 01:09:16;;;;;;;27.92;16.95;;;2.70;99.90;;;;;;5039598;28;20073;-81
2022/01/11 01:11:44;;;;;;;27.75;17.08;;;2.70;99.90;;;;;;5037963;28;20485;-81
2022/01/11 01:14:11;;;;;;;28.55;16.48;;;2.60;99.90;;;;;;5038253;28;20159;-81
2022/01/11 01:16:39;;;;;;;22.40;15.65;;;2.60;99.90;;;;;;5038498;28;20046;-81
2022/01/11 01:19:06;;;;;;;27.30;15.65;;;2.70;99.90;;;;;;5040113;28;20069;-81
2022/01/11 01:21:37;;;;;;;30.95;17.23;;;2.70;99.90;;;;;;5039546;28;20049;-81
2022/01/11 01:24:10;;;;;;;26.50;16.55;;;2.60;99.90;;;;;;5039580;28;20049;-81
2022/01/11 01:26:38;;;;;;;27.27;17.33;;;2.60;99.90;;;;;;5042608;28;20561;-80
2022/01/11 01:29:05;;;;;;;26.33;16.40;;;2.60;99.90;;;;;;5040676;28;20132;-81
2022/01/11 01:31:32;;;;;;;25.88;15.93;;;2.60;99.90;;;;;;5040067;28;20100;-80
2022/01/11 01:33:59;;;;;;;22.90;14.88;;;2.50;99.90;;;;;;5042006;28;20374;-81
2022/01/11 01:36:26;;;;;;;28.10;16.40;;;2.50;99.90;;;;;;5040403;28;20133;-81
2022/01/11 01:38:53;;;;;;;28.85;16.67;;;2.50;99.90;;;;;;5042404;28;20418;-80
2022/01/11 01:41:21;;;;;;;24.80;15.63;;;2.50;99.90;;;;;;5042181;28;20125;-81
2022/01/11 01:43:52;;;;;;;28.63;17.50;;;2.50;99.90;;;;;;5040363;28;20124;-81
2022/01/11 01:46:19;;;;;;;26.08;15.60;;;2.50;99.90;;;;;;5040017;28;20092;-81
2022/01/11 01:48:46;;;;;;;30.00;17.55;;;2.50;99.90;;;;;;5041639;28;20049;-81
2022/01/11 01:51:13;;;;;;;27.90;17.50;;;2.50;99.90;;;;;;5039980;28;20099;-81
2022/01/11 01:53:42;;;;;;;29.75;17.77;;;2.40;99.90;;;;;;5041218;28;20049;-80
2022/01/11 01:56:09;;;;;;;26.50;16.92;;;2.40;99.90;;;;;;5039672;28;20168;-81
2022/01/11 01:58:37;;;;;;;28.80;17.05;;;2.40;99.90;;;;;;5042164;28;20137;-81
2022/01/11 02:01:05;;;;;;;26.08;16.08;;;2.40;99.90;;;;;;5039662;28;20077;-81
2022/01/11 02:03:38;;;;;;;26.67;17.13;;;2.40;99.90;;;;;;5040621;28;20046;-82
2022/01/11 02:06:07;;;;;;;27.98;16.00;;;2.30;99.90;;;;;;5041038;28;20069;-81
2022/01/11 02:08:34;;;;;;;24.52;14.82;;;2.30;99.90;;;;;;5041779;28;20053;-81
2022/01/11 02:11:01;;;;;;;26.80;15.38;;;2.30;99.90;;;;;;5043069;28;20415;-81
2022/01/11 02:13:28;;;;;;;24.13;15.20;;;2.30;99.90;;;;;;5043849;28;20427;-80
2022/01/11 02:15:57;;;;;;;26.95;14.80;;;2.30;99.90;;;;;;5045686;28;20053;-81
2022/01/11 02:18:26;;;;;;;24.92;14.70;;;2.30;99.90;;;;;;5044886;28;20132;-81
2022/01/11 02:20:56;;;;;;;26.42;15.80;;;2.30;99.90;;;;;;5044475;28;20141;-80
2022/01/11 02:23:23;;;;;;;25.35;15.25;;;2.30;99.90;;;;;;5039160;28;20410;-81
2022/01/11 02:25:50;;;;;;;28.30;15.05;;;2.30;99.90;;;;;;5041027;28;20073;-81
2022/01/11 02:28:19;;;;;;;29.15;16.08;;;2.30;99.90;;;;;;5039447;28;20130;-81
2022/01/11 02:30:47;;;;;;;27.20;15.48;;;2.30;99.90;;;;;;5040718;28;20128;-81
2022/01/11 02:33:25;;;;;;;28.95;16.42;;;2.40;99.90;;;;;;5038878;28;20045;-80
2022/01/11 02:35:52;;;;;;;25.20;15.10;;;2.40;99.90;;;;;;5037767;28;20060;-81
2022/01/11 02:38:19;;;;;;;29.27;15.77;;;2.40;99.90;;;;;;5038067;28;20140;-81
2022/01/11 02:40:46;;;;;;;26.77;15.48;;;2.40;99.90;;;;;;5039474;28;20128;-81
2022/01/11 02:43:12;;;;;;;26.73;15.38;;;2.40;99.90;;;;;;5039291;28;20069;-81
2022/01/11 02:45:39;;;;;;;28.00;15.18;;;2.40;99.90;;;;;;5038380;28;20132;-81
2022/01/11 02:48:06;;;;;;;25.20;14.38;;;2.40;99.90;;;;;;5038370;28;20491;-80
2022/01/11 02:50:33;;;;;;;22.33;14.25;;;2.40;99.90;;;;;;5046842;23;20132;-87
2022/01/11 02:53:00;;;;;;;40.17;17.50;;;2.40;99.90;;;;;;5050270;28;20128;-87
2022/01/11 02:55:27;;;;;;;28.73;14.90;;;2.40;99.90;;;;;;5032311;28;20060;-87
2022/01/11 02:57:55;;;;;;;27.40;15.50;;;2.40;99.90;;;;;;5034591;28;20056;-87
2022/01/11 03:00:23;;;;;;;26.02;14.35;;;2.50;99.90;;;;;;5033600;28;20053;-86
2022/01/11 03:02:50;;;;;;;24.52;14.43;;;2.50;99.90;;;;;;5033781;28;20049;-86
2022/01/11 03:05:17;;;;;;;25.42;15.50;;;2.50;99.90;;;;;;5033551;28;20084;-86
2022/01/11 03:07:44;;;;;;;26.85;15.85;;;2.60;99.90;;;;;;5034911;28;20103;-87
2022/01/11 03:10:32;;;;;;;23.20;13.30;;;2.60;99.90;;;;;;5049724;28;20051;-87
2022/01/11 03:13:01;;;;;;;27.33;15.40;;;2.50;99.90;;;;;;5035540;28;20123;-86
2022/01/11 03:15:28;;;;;;;24.13;14.48;;;2.50;99.90;;;;;;5034325;28;20129;-86
2022/01/11 03:17:55;;;;;;;28.42;14.98;;;2.50;99.90;;;;;;5033427;28;20042;-86
2022/01/11 03:20:22;;;;;;;24.77;14.32;;;2.50;99.90;;;;;;5034401;28;20049;-87
2022/01/11 03:22:49;;;;;;;26.08;14.02;;;2.50;99.90;;;;;;5034374;28;20072;-86
2022/01/11 03:25:17;;;;;;;29.75;14.35;;;2.60;99.90;;;;;;5033917;28;20100;-86
2022/01/11 03:27:45;;;;;;;21.30;13.15;;;2.60;99.90;;;;;;5034255;28;20689;-86
2022/01/11 03:30:12;;;;;;;29.20;14.00;;;2.60;99.90;;;;;;5033260;28;20071;-86
2022/01/11 03:32:39;;;;;;;20.20;12.77;;;2.60;99.90;;;;;;5034193;28;20049;-86
2022/01/11 03:35:08;;;;;;;22.20;13.48;;;2.60;99.90;;;;;;5033909;28;20050;-86
2022/01/11 03:37:35;;;;;;;25.25;13.45;;;2.60;99.90;;;;;;5032711;28;20049;-86
2022/01/11 03:40:05;;;;;;;24.83;14.13;;;2.60;99.90;;;;;;5033367;28;20128;-87
2022/01/11 03:42:32;;;;;;;22.70;12.60;;;2.70;99.90;;;;;;5034007;28;20049;-87
2022/01/11 03:44:58;;;;;;;29.65;13.73;;;2.70;99.90;;;;;;5032741;28;20049;-87
2022/01/11 03:47:30;;;;;;;23.75;12.60;;;2.70;99.90;;;;;;5032153;28;20056;-86
2022/01/11 03:49:57;;;;;;;21.00;12.82;;;2.70;99.90;;;;;;5033708;28;20371;-87
2022/01/11 03:52:24;;;;;;;28.38;14.65;;;2.50;99.90;;;;;;5032484;28;20149;-87
2022/01/11 03:57:17;;;;;;;29.85;14.70;;;2.50;99.90;;;;;;5033847;28;20046;-87
2022/01/11 03:59:44;;;;;;;27.23;13.60;;;2.50;99.90;;;;;;5033757;28;20055;-86
2022/01/11 04:02:11;;;;;;;28.45;13.48;;;2.50;99.90;;;;;;5033696;28;20042;-87
2022/01/11 04:04:38;;;;;;;24.05;12.48;;;2.40;99.90;;;;;;5033222;28;20046;-87
2022/01/11 04:07:06;;;;;;;24.23;11.60;;;2.50;99.90;;;;;;5032297;28;20115;-86
2022/01/11 04:09:33;;;;;;;25.70;13.52;;;2.60;99.90;;;;;;5032874;28;20156;-87
2022/01/11 04:12:00;;;;;;;27.17;14.07;;;2.60;99.90;;;;;;5032836;28;20049;-86
2022/01/11 04:14:27;;;;;;;28.13;13.63;;;2.70;99.90;;;;;;5033704;28;20057;-87
2022/01/11 04:16:53;;;;;;;22.52;13.27;;;2.70;99.90;;;;;;5032162;28;20136;-86
2022/01/11 04:19:21;;;;;;;28.77;12.82;;;2.70;99.90;;;;;;5032216;28;20056;-87
2022/01/11 04:21:48;;;;;;;24.88;12.93;;;2.70;99.90;;;;;;5032390;28;20056;-87
2022/01/11 04:24:15;;;;;;;28.30;13.70;;;2.70;99.90;;;;;;5039706;28;20037;-87
2022/01/11 04:26:46;;;;;;;23.30;12.48;;;2.70;99.90;;;;;;5044052;28;20084;-87
2022/01/11 04:29:12;;;;;;;25.35;13.30;;;2.70;99.90;;;;;;5032675;28;20512;-87
2022/01/11 04:31:40;;;;;;;24.60;12.63;;;2.70;99.90;;;;;;5033230;28;20073;-86
2022/01/11 04:34:08;;;;;;;29.50;12.65;;;2.70;99.90;;;;;;5031946;28;20053;-87
2022/01/11 04:36:35;;;;;;;23.83;12.40;;;2.50;99.90;;;;;;5032102;28;20056;-87
2022/01/11 04:39:09;;;;;;;24.67;12.57;;;2.60;99.90;;;;;;5033131;28;20045;-87
2022/01/11 04:41:36;;;;;;;23.73;12.73;;;2.60;99.90;;;;;;5033090;28;20050;-87
2022/01/11 04:44:03;;;;;;;26.17;13.38;;;2.70;99.90;;;;;;5031804;28;20045;-87
2022/01/11 04:46:30;;;;;;;29.65;13.10;;;2.70;99.90;;;;;;5031857;28;20053;-87
2022/01/11 04:48:59;;;;;;;24.38;12.95;;;2.80;99.90;;;;;;5032106;28;20269;-87
2022/01/11 04:51:27;;;;;;;22.17;12.23;;;2.70;99.90;;;;;;5031951;28;20482;-87
2022/01/11 04:53:54;;;;;;;24.20;12.63;;;2.70;99.90;;;;;;5032152;28;20053;-86
2022/01/11 04:56:21;;;;;;;23.38;12.30;;;2.70;99.90;;;;;;5032536;28;20053;-86
2022/01/11 04:58:48;;;;;;;21.05;11.00;;;2.70;99.90;;;;;;5034510;28;20057;-87
2022/01/11 05:01:15;;;;;;;25.20;13.48;;;2.70;99.90;;;;;;5035890;28;20121;-87
2022/01/11 05:03:42;;;;;;;20.02;12.35;;;2.60;99.90;;;;;;5036098;28;20050;-87
2022/01/11 05:06:10;;;;;;;25.17;13.88;;;2.60;99.90;;;;;;5037124;28;20041;-86
2022/01/11 05:08:36;;;;;;;27.40;14.20;;;2.60;99.90;;;;;;5036877;28;20417;-87
2022/01/11 05:11:03;;;;;;;44.65;19.05;;;2.60;99.90;;;;;;5036721;28;20048;-86
2022/01/11 05:13:31;;;;;;;31.10;15.15;;;2.50;99.90;;;;;;5036772;28;20055;-86
2022/01/11 05:15:59;;;;;;;27.17;15.63;;;2.50;99.90;;;;;;5036478;28;20140;-87
2022/01/11 05:18:26;;;;;;;29.25;16.50;;;2.50;99.90;;;;;;5035741;28;20080;-87
2022/01/11 05:20:53;;;;;;;34.50;15.52;;;2.50;99.90;;;;;;5035543;28;20368;-87
2022/01/11 05:23:19;;;;;;;27.98;14.93;;;2.50;99.90;;;;;;5035421;28;20109;-86
2022/01/11 05:25:46;;;;;;;24.95;13.85;;;2.60;99.90;;;;;;5035351;28;20041;-86
2022/01/11 05:28:13;;;;;;;31.38;15.20;;;2.60;99.90;;;;;;5035223;28;20060;-86
2022/01/11 05:30:40;;;;;;;29.98;15.50;;;2.50;99.90;;;;;;5035402;28;20481;-86
2022/01/11 05:33:07;;;;;;;29.33;14.43;;;2.50;99.90;;;;;;5035591;28;20053;-87
2022/01/11 05:35:34;;;;;;;28.20;14.10;;;2.50;99.90;;;;;;5035192;28;20145;-87
2022/01/11 05:38:04;;;;;;;33.85;16.30;;;2.50;99.90;;;;;;5036282;28;20514;-87
2022/01/11 05:40:31;;;;;;;26.35;14.45;;;2.50;99.90;;;;;;5053680;28;20071;-86
2022/01/11 05:42:57;;;;;;;27.60;14.63;;;2.50;99.90;;;;;;5036236;28;20049;-87
2022/01/11 05:45:24;;;;;;;28.65;14.80;;;2.60;99.90;;;;;;5035951;28;20417;-86
2022/01/11 05:47:52;;;;;;;34.95;18.33;;;2.70;99.90;;;;;;5035313;28;20050;-87
2022/01/11 05:50:21;;;;;;;41.30;18.23;;;2.70;99.90;;;;;;5034978;28;20045;-87
2022/01/11 05:52:49;;;;;;;39.97;19.33;;;2.70;99.90;;;;;;5035215;28;20057;-87
2022/01/11 05:55:17;;;;;;;38.95;17.80;;;2.70;99.90;;;;;;5035171;28;20045;-87
2022/01/11 05:57:43;;;;;;;31.67;18.15;;;2.70;99.90;;;;;;5034807;28;20320;-86
2022/01/11 06:00:19;;;;;;;35.33;18.00;;;2.70;99.90;;;;;;5035051;28;20060;-87
2022/01/11 06:02:48;;;;;;;41.50;21.17;;;2.70;99.90;;;;;;5035165;28;20060;-87
2022/01/11 06:05:18;;;;;;;60.70;29.30;;;2.70;99.90;;;;;;5035267;28;20099;-86
2022/01/11 06:07:45;;;;;;;45.97;22.88;;;2.70;99.90;;;;;;5034966;28;20140;-87
2022/01/11 06:10:12;;;;;;;34.78;16.45;;;2.60;99.90;;;;;;5033984;28;20068;-86
2022/01/11 06:12:39;;;;;;;38.95;17.90;;;2.70;99.90;;;;;;5035099;28;20506;-87
2022/01/11 06:15:06;;;;;;;43.58;17.52;;;2.60;99.90;;;;;;5034889;28;20045;-87
2022/01/11 06:17:33;;;;;;;29.55;16.50;;;2.60;99.90;;;;;;5035815;28;20046;-86
2022/01/11 06:19:59;;;;;;;35.85;14.60;;;2.60;99.90;;;;;;5034928;28;20053;-87
2022/01/11 06:22:26;;;;;;;30.02;15.57;;;2.60;99.90;;;;;;5034703;28;20052;-87
2022/01/11 06:24:53;;;;;;;34.33;16.77;;;2.60;99.90;;;;;;5035743;28;20530;-87
2022/01/11 06:27:20;;;;;;;40.05;20.30;;;2.60;99.90;;;;;;5034749;28;20128;-87
2022/01/11 06:29:47;;;;;;;47.33;23.95;;;2.60;99.90;;;;;;5035605;28;20045;-87
2022/01/11 06:32:14;;;;;;;39.45;20.90;;;2.60;99.90;;;;;;5034848;28;20122;-87
2022/01/11 06:34:42;;;;;;;54.95;23.52;;;2.60;99.90;;;;;;5035107;28;20050;-87
2022/01/11 06:37:08;;;;;;;35.67;19.08;;;2.60;99.90;;;;;;5035421;28;20433;-86
2022/01/11 06:39:36;;;;;;;43.03;20.95;;;2.60;99.90;;;;;;5034294;28;20045;-86
2022/01/11 06:42:04;;;;;;;44.53;22.15;;;2.60;99.90;;;;;;5034464;28;20080;-87
2022/01/11 06:44:32;;;;;;;59.80;28.95;;;2.60;99.90;;;;;;5034142;28;20049;-87
2022/01/11 06:46:58;;;;;;;65.10;31.75;;;2.60;99.90;;;;;;5034234;28;20512;-87
2022/01/11 06:49:25;;;;;;;71.07;32.50;;;2.60;99.90;;;;;;5036978;28;20072;-87
2022/01/11 06:51:52;;;;;;;50.72;24.20;;;2.60;99.90;;;;;;5034088;28;20088;-87
2022/01/11 06:54:19;;;;;;;42.47;21.50;;;2.60;99.90;;;;;;5037614;28;20425;-87
2022/01/11 06:56:46;;;;;;;49.95;20.10;;;2.60;99.90;;;;;;5050835;28;20053;-87
2022/01/11 06:59:12;;;;;;;36.53;17.90;;;2.60;99.90;;;;;;5035502;28;20049;-87
2022/01/11 07:01:39;;;;;;;36.95;19.83;;;2.60;99.90;;;;;;5034941;28;20479;-86
2022/01/11 07:04:06;;;;;;;44.97;24.15;;;2.60;99.90;;;;;;5034597;28;20485;-87
2022/01/11 07:06:33;;;;;;;56.72;27.63;;;2.70;99.90;;;;;;5034872;28;20048;-87
2022/01/11 07:09:00;;;;;;;69.40;33.88;;;2.60;99.90;;;;;;5037444;28;20084;-87
2022/01/11 07:11:27;;;;;;;67.07;34.58;;;2.60;99.90;;;;;;5041073;28;20055;-87
2022/01/11 07:13:53;;;;;;;56.22;27.10;;;2.60;99.90;;;;;;5034027;28;20055;-87
2022/01/11 07:16:20;;;;;;;44.17;20.35;;;2.60;99.90;;;;;;5034710;28;20383;-87
2022/01/11 07:18:47;;;;;;;48.72;23.35;;;2.60;99.90;;;;;;5033485;28;20042;-86
2022/01/11 07:21:14;;;;;;;51.78;20.50;;;2.60;99.90;;;;;;5033751;28;20144;-87
2022/01/11 07:23:41;;;;;;;47.40;18.80;;;2.60;99.90;;;;;;5034587;28;20041;-87
2022/01/11 07:26:08;;;;;;;41.88;18.48;;;2.70;99.90;;;;;;5034561;28;20063;-87
2022/01/11 07:28:35;;;;;;;52.38;20.60;;;2.70;99.90;;;;;;5033340;28;20045;-86
2022/01/11 07:31:03;;;;;;;55.65;19.38;;;2.70;99.90;;;;;;5034613;28;20051;-87
2022/01/11 07:33:30;;;;;;;48.60;19.17;;;2.70;99.90;;;;;;5032998;28;20050;-86
2022/01/11 07:35:57;;;;;;;72.72;23.27;;;2.80;99.90;;;;;;5034124;28;20050;-86
2022/01/11 07:38:23;;;;;;;53.38;20.30;;;2.80;99.90;;;;;;5033375;28;20050;-87
2022/01/11 07:40:50;;;;;;;54.90;19.10;;;2.80;99.90;;;;;;5033246;28;20051;-87
2022/01/11 07:43:17;;;;;;;66.68;21.98;;;2.80;99.90;;;;;;5034118;28;20802;-86
2022/01/11 07:45:44;;;;;;;53.80;19.55;;;2.90;99.90;;;;;;5033899;28;20049;-86
2022/01/11 07:48:11;;;;;;;52.05;19.95;;;2.90;99.90;;;;;;5034247;28;20057;-87
2022/01/11 07:50:37;;;;;;;48.38;20.33;;;2.90;99.90;;;;;;5033792;28;20057;-86
2022/01/11 07:53:05;;;;;;;41.95;18.70;;;3.00;99.90;;;;;;5034080;28;20144;-87
2022/01/11 07:55:33;;;;;;;45.85;18.50;;;3.00;99.90;;;;;;5033693;28;20498;-86
2022/01/11 07:58:00;;;;;;;44.13;18.85;;;3.10;99.90;;;;;;5033052;28;20413;-86
2022/01/11 08:00:27;;;;;;;40.40;18.02;;;3.10;99.90;;;;;;5032920;28;20049;-87
2022/01/11 08:02:53;;;;;;;46.60;18.40;;;3.00;99.90;;;;;;5033822;28;20055;-87
2022/01/11 08:05:21;;;;;;;46.40;20.38;;;2.90;99.90;;;;;;5033104;28;20053;-87
2022/01/11 08:07:48;;;;;;;47.17;24.02;;;2.90;99.90;;;;;;5032921;28;20052;-86
2022/01/11 08:10:18;;;;;;;51.97;24.95;;;3.00;99.90;;;;;;5039911;28;20048;-87
2022/01/11 08:12:49;;;;;;;55.08;28.52;;;3.00;99.90;;;;;;5045182;28;20084;-87
2022/01/11 08:15:16;;;;;;;55.42;28.63;;;3.00;99.90;;;;;;5033749;28;20128;-87
2022/01/11 08:17:43;;;;;;;54.08;28.02;;;3.00;99.90;;;;;;5032353;28;20076;-87
2022/01/11 08:20:10;;;;;;;52.72;26.73;;;3.00;99.90;;;;;;5032244;28;20053;-87
2022/01/11 08:22:37;;;;;;;49.95;25.85;;;3.10;99.90;;;;;;5032276;28;20133;-87
2022/01/11 08:25:05;;;;;;;44.83;23.52;;;3.20;99.90;;;;;;5041238;28;20041;-87
2022/01/11 08:27:33;;;;;;;46.55;23.10;;;3.20;99.90;;;;;;5042436;28;20092;-86
2022/01/11 08:30:06;;;;;;;38.90;18.80;;;3.30;99.90;;;;;;5035869;28;20071;-86
2022/01/11 08:32:33;;;;;;;40.15;19.48;;;3.30;99.90;;;;;;5034947;28;20132;-86
2022/01/11 08:35:00;;;;;;;43.20;22.15;;;3.30;99.90;;;;;;5039824;28;20041;-87
2022/01/11 08:37:26;;;;;;;47.20;22.90;;;3.30;99.90;;;;;;5032246;28;20471;-87
2022/01/11 08:39:53;;;;;;;50.65;25.48;;;3.30;99.90;;;;;;5031874;28;20049;-87
2022/01/11 08:42:20;;;;;;;76.97;34.03;;;3.30;99.90;;;;;;5031879;28;20132;-85
2022/01/11 08:44:49;;;;;;;76.32;35.58;;;3.30;99.90;;;;;;5031974;28;20053;-87
2022/01/11 08:47:19;;;;;;;154.77;67.63;;;3.40;99.90;;;;;;5031959;28;20081;-86
2022/01/11 08:49:47;;;;;;;140.93;63.47;;;3.40;99.90;;;;;;5032070;28;20085;-87
2022/01/11 08:52:14;;;;;;;130.70;59.85;;;3.40;99.90;;;;;;5032643;28;20061;-87
2022/01/11 08:54:41;;;;;;;80.50;41.88;;;3.40;99.90;;;;;;5033689;28;20049;-87
2022/01/11 08:57:09;;;;;;;58.15;32.97;;;3.40;99.90;;;;;;5034026;28;20532;-87
2022/01/11 08:59:35;;;;;;;58.03;29.40;;;3.40;99.90;;;;;;5033721;28;20057;-87
2022/01/11 09:02:04;;;;;;;49.45;26.40;;;3.40;99.90;;;;;;5033071;28;20053;-87
2022/01/11 09:04:31;;;;;;;48.83;25.13;;;3.50;99.90;;;;;;5032167;28;20053;-87
2022/01/11 09:06:58;;;;;;;51.45;24.05;;;3.50;99.90;;;;;;5031759;28;20096;-87
2022/01/11 09:09:26;;;;;;;41.63;22.42;;;3.60;99.90;;;;;;5032687;28;20083;-87
2022/01/11 09:11:53;;;;;;;50.25;24.00;;;3.60;99.90;;;;;;5031991;28;20049;-87
2022/01/11 09:14:21;;;;;;;41.30;22.15;;;3.60;99.90;;;;;;5032181;28;20092;-87
2022/01/11 09:16:48;;;;;;;43.80;21.85;;;3.70;99.90;;;;;;5032067;28;20141;-87
2022/01/11 09:19:18;;;;;;;41.40;20.85;;;3.60;99.90;;;;;;5032023;28;20049;-87
2022/01/11 09:21:45;;;;;;;47.75;21.92;;;3.60;99.90;;;;;;5032185;28;20052;-87
2022/01/11 09:24:13;;;;;;;50.22;23.08;;;3.70;99.90;;;;;;5033196;28;20111;-87
2022/01/11 09:26:40;;;;;;;39.60;20.13;;;3.70;99.90;;;;;;5046222;28;20069;-87
2022/01/11 09:29:07;;;;;;;41.72;21.17;;;3.80;99.90;;;;;;5038775;28;20132;-87
2022/01/11 09:31:34;;;;;;;42.05;19.75;;;3.80;99.90;;;;;;5032032;28;20052;-87
2022/01/11 09:34:01;;;;;;;49.15;22.02;;;3.80;99.90;;;;;;5032859;28;20049;-87
2022/01/11 09:36:28;;;;;;;51.85;24.00;;;3.90;99.90;;;;;;5032046;28;20053;-87
2022/01/11 09:38:56;;;;;;;40.70;19.55;;;3.90;99.90;;;;;;5032792;28;20042;-87
2022/01/11 09:41:23;;;;;;;50.67;24.45;;;4.00;99.90;;;;;;5031945;28;20099;-87
2022/01/11 09:43:50;;;;;;;55.47;29.35;;;4.00;99.90;;;;;;5031625;28;20046;-87
2022/01/11 09:46:18;;;;;;;60.15;33.85;;;3.90;99.90;;;;;;5044314;28;20098;-87
2022/01/11 09:48:45;;;;;;;59.55;30.55;;;3.80;99.90;;;;;;5054618;28;20102;-87
2022/01/11 09:51:12;;;;;;;61.47;30.85;;;3.80;99.90;;;;;;5054382;28;20135;-87
2022/01/11 09:53:40;;;;;;;44.63;22.08;;;3.80;99.90;;;;;;5054789;28;20067;-86
2022/01/11 09:56:08;;;;;;;54.58;26.73;;;3.80;99.90;;;;;;5055335;28;20057;-87
2022/01/11 09:58:36;;;;;;;51.58;22.33;;;3.80;99.90;;;;;;5054723;28;20041;-87
2022/01/11 10:01:04;;;;;;;55.83;24.83;;;3.70;99.90;;;;;;5055041;28;20548;-87
2022/01/11 10:03:52;;;;;;;50.88;22.10;;;3.50;99.90;;;;;;5055626;28;20099;-87
2022/01/11 10:06:21;;;;;;;64.80;27.35;;;3.50;99.90;;;;;;5055930;28;20048;-87
2022/01/11 10:08:48;;;;;;;51.28;23.17;;;3.50;99.90;;;;;;5054549;28;20478;-86
2022/01/11 10:11:36;;;;;;;66.35;29.67;;;3.50;99.90;;;;;;5054734;28;20045;-87
2022/01/11 10:14:32;;;;;;;77.97;38.60;;;3.60;99.90;;;;;;5054293;28;20060;-87
2022/01/11 10:17:10;;;;;;;62.63;34.90;;;3.60;99.90;;;;;;5054555;28;20128;-87
2022/01/11 10:19:40;;;;;;;43.28;19.63;;;3.60;99.90;;;;;;5054482;28;20074;-87
2022/01/11 10:22:10;;;;;;;33.05;16.02;;;3.80;99.90;;;;;;5055355;28;20048;-87
2022/01/11 10:24:43;;;;;;;53.92;32.13;;;4.00;99.90;;;;;;5054182;28;20053;-86
2022/01/11 10:27:19;;;;;;;53.40;30.03;;;4.10;99.90;;;;;;5054096;28;20084;-86
2022/01/11 10:29:49;;;;;;;122.93;63.38;;;4.10;99.90;;;;;;5054018;28;20049;-87
2022/01/11 10:32:18;;;;;;;46.33;24.02;;;4.10;99.90;;;;;;5055173;28;20041;-87
2022/01/11 10:34:48;;;;;;;30.25;17.17;;;4.30;99.90;;;;;;5053706;28;20136;-87
2022/01/11 10:37:26;;;;;;;26.88;14.88;;;4.40;99.90;;;;;;5053777;28;20139;-87
2022/01/11 10:40:32;;;;;;;25.33;14.50;;;4.40;99.90;;;;;;5054504;28;20072;-87
2022/01/11 10:43:12;;;;;;;27.58;15.48;;;4.50;99.90;;;;;;5069706;28;20056;-87
2022/01/11 10:45:44;;;;;;;21.50;13.05;;;4.70;99.90;;;;;;5055384;28;20084;-86
2022/01/11 10:48:16;;;;;;;20.42;12.70;;;4.70;99.90;;;;;;5053812;28;20408;-87
2022/01/11 10:50:48;;;;;;;21.13;12.57;;;4.90;99.90;;;;;;5054785;28;20048;-87
2022/01/11 10:53:19;;;;;;;23.05;13.90;;;5.10;99.90;;;;;;5053867;28;20394;-87
2022/01/11 10:55:52;;;;;;;24.00;13.90;;;5.10;99.90;;;;;;5053179;28;20059;-87
2022/01/11 10:58:39;;;;;;;19.33;12.60;;;5.20;99.90;;;;;;5054109;28;20049;-88
2022/01/11 11:01:08;;;;;;;20.95;12.07;;;5.40;99.90;;;;;;5053663;28;20049;-87
2022/01/11 11:03:36;;;;;;;16.58;10.90;;;5.50;99.90;;;;;;5041839;28;20050;-87
2022/01/11 11:06:14;;;;;;;15.77;10.75;;;5.50;99.90;;;;;;5033571;28;20049;-87
2022/01/11 11:08:44;;;;;;;31.88;19.23;;;5.50;99.90;;;;;;5033788;28;20053;-88
2022/01/11 11:11:15;;;;;;;23.30;13.75;;;5.70;99.90;;;;;;5033167;28;20081;-87
2022/01/11 11:13:47;;;;;;;21.45;13.43;;;5.80;99.90;;;;;;5033432;28;20049;-87
2022/01/11 11:16:28;;;;;;;20.08;13.40;;;5.80;99.90;;;;;;5033114;28;20054;-87
2022/01/11 11:18:57;;;;;;;55.00;33.35;;;5.70;99.90;;;;;;5033354;28;20049;-87
2022/01/11 11:21:31;;;;;;;42.03;25.27;;;5.50;99.90;;;;;;5033521;28;20060;-88
2022/01/11 11:24:07;;;;;;;24.52;16.33;;;5.60;99.90;;;;;;5035162;28;20497;-87
2022/01/11 11:26:49;;;;;;;15.02;9.30;;;5.80;99.90;;;;;;5036052;28;20048;-87
2022/01/11 11:29:18;;;;;;;18.42;9.68;;;6.00;99.90;;;;;;5043176;28;20124;-87
2022/01/11 11:32:06;;;;;;;12.82;9.18;;;6.20;99.90;;;;;;5035987;28;20053;-88
2022/01/11 11:34:34;;;;;;;12.70;9.65;;;6.40;99.90;;;;;;5033439;28;20485;-88
2022/01/11 11:37:06;;;;;;;13.27;8.80;;;6.50;99.90;;;;;;5033150;28;20049;-88
2022/01/11 11:39:34;;;;;;;14.75;9.32;;;6.70;99.90;;;;;;5032845;28;20073;-87
2022/01/11 11:42:02;;;;;;;12.27;8.73;;;6.80;99.90;;;;;;5033042;28;20537;-87
2022/01/11 11:44:36;;;;;;;12.98;9.90;;;6.70;99.90;;;;;;5032340;28;20076;-88
2022/01/11 11:47:05;;;;;;;;;;;6.80;99.90;;;;;;5033808;28;20413;-87
2022/01/11 11:49:52;;;;;;;13.45;8.90;;;6.60;99.90;;;;;;5032879;28;20358;-87
2022/01/11 11:52:39;;;;;;;14.13;8.70;;;6.40;99.90;;;;;;5032842;28;20072;-87
2022/01/11 11:55:19;;;;;;;11.75;8.35;;;6.30;99.90;;;;;;5033013;28;20045;-88
2022/01/11 11:57:48;;;;;;;12.35;8.88;;;6.10;99.90;;;;;;5045743;28;20041;-88
2022/01/11 12:00:26;;;;;;;11.60;8.75;;;6.00;99.90;;;;;;5041830;28;20081;-87
2022/01/11 12:02:55;;;;;;;12.77;8.52;;;6.10;99.90;;;;;;5033195;28;20088;-88
2022/01/11 12:05:33;;;;;;;14.25;9.18;;;6.10;99.90;;;;;;5033028;28;20046;-87
2022/01/11 12:08:28;;;;;;;14.85;9.90;;;6.10;99.90;;;;;;5033497;28;20079;-88
2022/01/11 12:10:58;;;;;;;15.55;10.13;;;6.10;99.90;;;;;;5034187;28;20049;-87
2022/01/11 12:13:41;;;;;;;13.50;9.35;;;5.70;99.90;;;;;;5032873;28;20058;-87
2022/01/11 12:16:23;;;;;;;;;;;5.90;99.90;;;;;;5033753;28;20084;-88
2022/01/11 12:18:55;;;;;;;11.77;8.68;;;5.60;99.90;;;;;;5033486;28;19929;-88
2022/01/11 12:21:23;;;;;;;13.98;9.50;;;5.80;99.90;;;;;;5033709;28;20053;-88
2022/01/11 12:23:51;;;;;;;13.90;9.07;;;5.90;99.90;;;;;;5033666;28;20051;-88
2022/01/11 12:26:21;;;;;;;12.13;8.50;;;5.70;99.90;;;;;;5032694;28;20077;-88
2022/01/11 12:29:10;;;;;;;14.15;9.05;;;6.00;99.90;;;;;;5016617;28;20433;-88
2022/01/11 12:32:00;;;;;;;12.55;8.43;;;5.90;99.90;;;;;;5032369;28;20128;-88
2022/01/11 12:34:46;;;;;;;11.60;7.35;;;5.70;99.90;;;;;;5032216;28;20049;-88
2022/01/11 12:37:28;;;;;;;13.88;8.15;;;5.50;99.90;;;;;;5032256;28;20068;-88
2022/01/11 12:40:26;;;;;;;12.27;7.95;;;5.40;99.90;;;;;;5032789;28;20054;-88
2022/01/11 12:43:05;;;;;;;11.85;7.35;;;5.50;99.90;;;;;;5031683;28;20053;-88
2022/01/11 12:46:05;;;;;;;12.60;7.90;;;5.60;99.90;;;;;;5031610;28;20470;-88
2022/01/11 12:48:49;;;;;;;15.02;9.65;;;5.60;99.90;;;;;;5031917;28;20172;-88
2022/01/11 12:51:23;;;;;;;12.25;7.72;;;5.60;99.90;;;;;;5031623;28;20049;-88